Time;durP1;ratioP1;P1;durP2;ratioP2;P2;SDS_P1;SDS_P2;PMS_P1;PMS_P2;Temp;Humidity;BMP_temperature;BMP_pressure;BME280_temperature;BME280_humidity;BME280_pressure;Samples;Min_cycle;Max_cycle;Signal;HPM_P1;HPM_P2
2021/05/14 00:05:14;;;;;;;5.47;2.60;;;20.50;53.30;;;;;;20893448;28;20029;-22
2021/05/14 00:15:15;;;;;;;5.53;2.55;;;20.50;53.40;;;;;;20910539;28;20021;-21
2021/05/14 00:25:16;;;;;;;5.28;2.30;;;20.50;53.70;;;;;;20910178;28;20025;-21
2021/05/14 00:35:17;;;;;;;4.28;2.17;;;20.50;53.50;;;;;;20864028;22;20052;-22
2021/05/14 00:45:17;;;;;;;7.55;2.20;;;20.50;53.50;;;;;;20746494;28;20038;-22
2021/05/14 00:55:18;;;;;;;4.15;2.05;;;20.50;53.50;;;;;;20743399;28;20033;-22
2021/05/14 01:05:21;;;;;;;4.13;1.98;;;20.40;53.60;;;;;;20745421;28;20047;-22
2021/05/14 01:15:21;;;;;;;3.95;2.45;;;20.40;53.60;;;;;;20742690;28;20045;-23
2021/05/14 01:25:22;;;;;;;6.95;1.63;;;20.40;53.70;;;;;;20741676;28;20104;-22
2021/05/14 01:35:23;;;;;;;3.10;1.90;;;20.40;53.70;;;;;;20735605;28;20032;-22
2021/05/14 01:45:23;;;;;;;4.03;1.67;;;20.40;53.80;;;;;;20742011;28;20037;-22
2021/05/14 01:55:24;;;;;;;2.80;1.75;;;20.40;54.00;;;;;;20743118;28;20540;-22
2021/05/14 02:05:25;;;;;;;3.28;2.03;;;20.40;53.90;;;;;;20752302;28;20030;-22
2021/05/14 02:15:26;;;;;;;2.38;1.30;;;20.30;54.00;;;;;;20741214;28;20428;-22
2021/05/14 02:25:26;;;;;;;2.63;1.70;;;20.30;54.00;;;;;;20736970;28;20029;-22
2021/05/14 02:35:27;;;;;;;3.85;1.75;;;20.30;54.20;;;;;;20747507;28;20037;-22
2021/05/14 02:45:28;;;;;;;2.88;1.50;;;20.30;54.10;;;;;;20765803;28;20069;-22
2021/05/14 02:55:28;;;;;;;3.17;1.67;;;20.20;54.20;;;;;;20744621;28;20030;-22
2021/05/14 03:05:29;;;;;;;2.75;1.60;;;20.20;54.20;;;;;;20753331;28;20100;-22
2021/05/14 03:15:30;;;;;;;2.88;1.33;;;20.30;54.20;;;;;;20754900;28;20040;-22
2021/05/14 03:25:30;;;;;;;1.98;1.27;;;20.20;54.20;;;;;;20740596;28;20030;-22
2021/05/14 03:35:31;;;;;;;3.53;1.23;;;20.20;54.10;;;;;;20756694;28;20492;-22
2021/05/14 03:45:32;;;;;;;5.80;1.57;;;20.20;54.00;;;;;;20756407;28;20026;-22
2021/05/14 03:55:32;;;;;;;3.25;1.50;;;20.20;54.00;;;;;;20758865;28;20482;-22
2021/05/14 04:05:39;;;;;;;6.80;1.67;;;20.20;54.10;;;;;;20748485;28;20417;-21
2021/05/14 04:15:40;;;;;;;2.72;1.98;;;20.20;54.10;;;;;;20746677;28;20054;-22
2021/05/14 04:25:40;;;;;;;4.13;1.77;;;20.40;53.40;;;;;;20744983;28;20044;-22
2021/05/14 04:35:41;;;;;;;2.75;1.88;;;21.10;52.00;;;;;;20743137;28;20404;-22
2021/05/14 04:45:42;;;;;;;4.55;2.10;;;21.30;51.30;;;;;;20755150;28;20034;-22
2021/05/14 04:55:42;;;;;;;4.67;2.57;;;21.30;51.10;;;;;;20752236;28;20029;-23
2021/05/14 05:05:43;;;;;;;4.68;3.05;;;21.20;51.30;;;;;;20760596;28;20511;-22
2021/05/14 05:15:43;;;;;;;3.33;2.75;;;21.10;51.60;;;;;;20755048;28;20029;-21
2021/05/14 05:25:44;;;;;;;5.03;2.95;;;21.00;51.80;;;;;;20741387;28;20026;-22
2021/05/14 05:35:45;;;;;;;5.38;2.92;;;20.80;52.20;;;;;;20746295;28;20496;-22
2021/05/14 05:45:46;;;;;;;6.60;4.10;;;20.70;52.50;;;;;;20734279;28;20021;-21
2021/05/14 05:55:48;;;;;;;4.25;3.83;;;20.70;52.60;;;;;;20743125;28;20030;-22
2021/05/14 06:05:48;;;;;;;4.78;3.50;;;20.60;52.70;;;;;;20750674;28;20489;-22
2021/05/14 06:15:51;;;;;;;5.25;4.10;;;20.60;52.90;;;;;;20757504;28;20049;-22
2021/05/14 06:25:51;;;;;;;6.30;4.47;;;20.60;52.90;;;;;;20742394;28;20048;-21
2021/05/14 06:35:52;;;;;;;6.50;4.95;;;20.50;52.90;;;;;;20781659;22;20049;-22
2021/05/14 06:45:53;;;;;;;12.38;6.40;;;20.50;52.90;;;;;;20903425;28;20037;-22
2021/05/14 06:55:53;;;;;;;11.37;5.60;;;20.50;52.80;;;;;;20957478;28;20112;-22
2021/05/14 07:05:54;;;;;;;9.38;5.05;;;20.50;52.90;;;;;;20983928;28;20017;-21
2021/05/14 07:15:55;;;;;;;15.73;6.93;;;20.80;52.40;;;;;;20987168;28;20100;-21
2021/05/14 07:25:55;;;;;;;16.77;7.07;;;21.40;51.50;;;;;;20978015;28;20471;-21
2021/05/14 07:35:56;;;;;;;30.83;8.57;;;22.10;50.60;;;;;;20916735;28;20532;-21
2021/05/14 07:45:56;;;;;;;13.52;5.93;;;22.80;49.20;;;;;;20946040;28;20044;-22
2021/05/14 07:55:57;;;;;;;18.08;7.90;;;23.10;49.30;;;;;;20933289;28;20068;-21
2021/05/14 08:05:58;;;;;;;15.80;7.80;;;22.80;50.00;;;;;;20940421;28;20024;-21
2021/05/14 08:15:59;;;;;;;21.60;7.75;;;22.60;50.00;;;;;;20957591;28;20029;-22
2021/05/14 08:26:00;;;;;;;20.02;7.93;;;22.30;50.10;;;;;;20917292;28;20112;-21
2021/05/14 08:36:01;;;;;;;12.65;7.53;;;22.00;50.10;;;;;;20913057;28;20459;-22
2021/05/14 08:46:03;;;;;;;12.63;6.88;;;21.90;50.40;;;;;;20916454;28;20036;-22
2021/05/14 08:56:04;;;;;;;12.13;6.68;;;21.80;50.90;;;;;;20913663;28;20064;-22
2021/05/14 09:06:04;;;;;;;7.50;5.45;;;21.60;51.50;;;;;;20929480;28;20029;-22
2021/05/14 09:16:06;;;;;;;16.57;6.47;;;21.40;52.00;;;;;;20906045;28;20028;-22
2021/05/14 09:26:11;;;;;;;7.97;4.95;;;21.40;52.10;;;;;;20900326;28;20028;-22
2021/05/14 09:36:19;;;;;;;8.55;5.13;;;21.60;51.10;;;;;;20898720;28;20029;-22
2021/05/14 09:46:39;;;;;;;7.63;5.07;;;21.70;51.10;;;;;;20900313;28;20107;-22
2021/05/14 09:56:42;;;;;;;7.65;5.30;;;21.80;51.20;;;;;;20956610;28;20483;-22
2021/05/14 10:06:43;;;;;;;11.23;4.82;;;21.70;51.50;;;;;;20985122;28;20036;-22
2021/05/14 10:16:44;;;;;;;8.25;4.18;;;21.70;51.80;;;;;;20962038;28;20029;-22
2021/05/14 10:26:45;;;;;;;6.18;4.15;;;21.60;51.90;;;;;;20984153;28;20071;-21
2021/05/14 10:36:47;;;;;;;6.20;4.10;;;21.50;52.40;;;;;;20983821;28;20032;-21
2021/05/14 10:46:47;;;;;;;7.18;4.97;;;21.30;52.50;;;;;;20969067;28;20024;-21
2021/05/14 10:56:49;;;;;;;8.05;4.20;;;21.30;52.60;;;;;;21000733;28;20060;-21
2021/05/14 11:06:54;;;;;;;6.05;4.75;;;21.20;52.70;;;;;;20998696;28;20098;-21
2021/05/14 11:16:57;;;;;;;6.43;4.50;;;21.10;52.70;;;;;;20997793;28;20029;-21
2021/05/14 11:26:59;;;;;;;7.32;4.15;;;21.10;52.80;;;;;;20997104;28;20017;-21
2021/05/14 11:36:59;;;;;;;10.40;4.50;;;21.10;53.00;;;;;;20999050;28;20111;-22
2021/05/14 11:47:01;;;;;;;8.07;4.18;;;21.00;53.10;;;;;;20996247;28;20048;-22
2021/05/14 11:57:01;;;;;;;4.97;3.67;;;20.90;53.00;;;;;;20968262;28;20048;-22
2021/05/14 12:07:02;;;;;;;6.17;3.80;;;20.90;53.00;;;;;;21001029;28;20501;-21
2021/05/14 12:17:02;;;;;;;6.63;3.35;;;20.90;53.10;;;;;;20974847;28;20035;-22
2021/05/14 12:27:05;;;;;;;4.85;3.05;;;20.80;53.00;;;;;;20917475;28;20037;-22
2021/05/14 12:37:06;;;;;;;7.25;4.50;;;20.80;53.10;;;;;;20925919;22;20128;-22
2021/05/14 12:47:08;;;;;;;6.88;4.28;;;20.80;53.20;;;;;;20828844;28;20068;-22
2021/05/14 12:57:24;;;;;;;6.80;4.03;;;20.80;53.20;;;;;;20830026;28;20036;-22
2021/05/14 13:07:25;;;;;;;7.65;3.88;;;20.70;53.40;;;;;;20832309;28;20399;-22
2021/05/14 13:17:25;;;;;;;5.78;4.50;;;20.70;53.50;;;;;;20835255;28;20116;-22
2021/05/14 13:27:26;;;;;;;5.38;3.47;;;20.70;53.60;;;;;;20832425;28;20057;-21
2021/05/14 13:37:26;;;;;;;10.00;4.43;;;20.60;53.70;;;;;;20835381;28;20076;-22
2021/05/14 13:47:28;;;;;;;12.90;5.35;;;20.60;53.60;;;;;;20831865;28;20041;-22
2021/05/14 13:57:28;;;;;;;7.00;4.45;;;20.60;53.60;;;;;;20832824;28;20068;-21
2021/05/14 14:07:30;;;;;;;13.10;5.88;;;20.50;53.70;;;;;;20828536;28;20046;-21
2021/05/14 14:17:30;;;;;;;14.15;5.00;;;20.60;53.90;;;;;;20824609;28;20037;-22
2021/05/14 14:27:32;;;;;;;16.98;6.18;;;20.60;53.90;;;;;;20817107;28;20034;-21
2021/05/14 14:37:33;;;;;;;19.13;5.75;;;20.60;53.90;;;;;;20825174;28;20544;-21
2021/05/14 14:47:34;;;;;;;23.13;5.95;;;20.60;54.00;;;;;;20813097;28;20531;-20
2021/05/14 14:57:35;;;;;;;11.75;5.72;;;20.50;54.00;;;;;;20839956;28;20107;-22
2021/05/14 15:07:35;;;;;;;21.48;7.95;;;20.50;54.00;;;;;;20826566;28;20059;-22
2021/05/14 15:17:36;;;;;;;15.27;5.50;;;20.50;53.80;;;;;;20831670;28;20045;-21
2021/05/14 15:27:37;;;;;;;17.40;7.13;;;20.50;53.70;;;;;;20856579;28;20040;-21
2021/05/14 15:37:37;;;;;;;14.70;6.10;;;20.50;53.70;;;;;;20834321;28;20544;-22
2021/05/14 15:47:38;;;;;;;17.90;6.38;;;21.00;53.00;;;;;;20822587;28;20033;-22
2021/05/14 15:57:39;;;;;;;17.67;6.37;;;21.80;51.30;;;;;;20842199;28;20045;-22
2021/05/14 16:07:39;;;;;;;18.67;6.72;;;22.30;50.30;;;;;;20836453;28;20499;-22
2021/05/14 16:17:43;;;;;;;17.90;5.77;;;22.20;50.50;;;;;;20831885;28;20037;-21
2021/05/14 16:27:44;;;;;;;17.05;5.55;;;22.00;50.70;;;;;;20832504;28;20476;-21
2021/05/14 16:37:45;;;;;;;15.43;5.65;;;21.90;51.10;;;;;;20826666;28;20043;-21
2021/05/14 16:47:47;;;;;;;19.05;6.43;;;21.80;51.40;;;;;;20823524;28;20040;-21
2021/05/14 16:57:48;;;;;;;18.23;6.43;;;21.70;51.60;;;;;;20827432;28;20068;-21
2021/05/14 17:07:48;;;;;;;13.45;4.32;;;21.70;51.60;;;;;;20823995;28;20029;-21
2021/05/14 17:17:50;;;;;;;17.33;5.40;;;21.70;51.50;;;;;;20826263;28;20170;-20
2021/05/14 17:27:51;;;;;;;21.73;7.18;;;21.60;51.70;;;;;;20802834;28;20546;-22
2021/05/14 17:37:51;;;;;;;23.15;6.32;;;21.50;52.00;;;;;;20823682;28;20037;-21
2021/05/14 17:47:52;;;;;;;23.95;6.00;;;21.30;52.30;;;;;;20821820;28;20451;-21
2021/05/14 17:57:52;;;;;;;20.98;6.00;;;21.20;52.60;;;;;;20831104;28;20155;-21
2021/05/14 18:07:53;;;;;;;20.45;5.70;;;21.30;53.10;;;;;;20826713;28;20381;-21
2021/05/14 18:17:58;;;;;;;12.85;4.10;;;21.10;53.10;;;;;;20823793;28;20108;-21
2021/05/14 18:27:59;;;;;;;15.13;4.50;;;21.00;53.30;;;;;;20819743;28;20061;-22
2021/05/14 18:38:00;;;;;;;20.30;4.68;;;21.10;53.20;;;;;;20859040;28;20029;-22
2021/05/14 18:48:03;;;;;;;17.50;5.70;;;21.10;53.50;;;;;;20835965;28;20124;-25
2021/05/14 18:58:03;;;;;;;17.67;4.65;;;21.30;53.00;;;;;;20818796;23;20034;-22
2021/05/14 19:08:04;;;;;;;9.10;4.55;;;21.40;53.30;;;;;;20769481;28;20383;-23
2021/05/14 19:18:05;;;;;;;17.43;5.17;;;21.40;53.40;;;;;;20751341;28;20088;-22
2021/05/14 19:48:46;;;;;;;24.45;5.82;;;21.40;53.60;;;;;;20738900;28;20029;-22
2021/05/14 19:58:47;;;;;;;27.02;4.97;;;21.40;53.60;;;;;;20734390;28;20049;-22
2021/05/14 20:08:47;;;;;;;27.60;5.25;;;21.50;53.80;;;;;;20735363;28;20415;-21
2021/05/14 20:18:48;;;;;;;20.77;6.28;;;21.20;53.90;;;;;;20732232;28;20037;-21
2021/05/14 20:28:49;;;;;;;18.45;4.60;;;21.00;53.40;;;;;;20730764;28;20061;-20
2021/05/14 20:38:58;;;;;;;14.63;4.20;;;21.00;53.40;;;;;;20737834;28;20026;-22
2021/05/14 20:48:59;;;;;;;20.23;4.63;;;20.90;53.40;;;;;;20743975;28;20033;-22
2021/05/14 20:59:01;;;;;;;11.95;4.45;;;20.80;53.30;;;;;;20732604;28;20759;-22
2021/05/14 21:09:03;;;;;;;15.23;4.13;;;20.80;53.20;;;;;;20735822;28;20121;-21
2021/05/14 21:19:04;;;;;;;12.02;4.10;;;20.80;53.10;;;;;;20732836;28;20046;-22
2021/05/14 21:29:04;;;;;;;10.23;3.45;;;20.70;53.20;;;;;;20731557;28;20037;-22
2021/05/14 21:39:05;;;;;;;15.02;3.92;;;20.70;53.10;;;;;;20729226;28;20030;-22
2021/05/14 21:49:06;;;;;;;12.50;3.63;;;20.60;53.00;;;;;;20738693;28;20030;-22
2021/05/14 21:59:07;;;;;;;9.65;3.75;;;20.60;53.10;;;;;;20738529;28;20034;-21
2021/05/14 22:09:08;;;;;;;6.63;2.70;;;20.60;53.10;;;;;;20751206;28;20026;-21
2021/05/14 22:19:10;;;;;;;7.93;3.17;;;20.50;53.00;;;;;;20737841;28;20416;-21
2021/05/14 22:29:11;;;;;;;7.35;3.33;;;20.50;53.00;;;;;;20739992;28;20405;-23
2021/05/14 22:39:12;;;;;;;5.75;2.90;;;20.50;53.00;;;;;;20745422;28;20032;-21
2021/05/14 22:49:13;;;;;;;8.63;2.88;;;20.40;53.00;;;;;;20751704;28;20144;-21
2021/05/14 22:59:13;;;;;;;6.55;3.10;;;20.40;53.00;;;;;;20752538;28;20030;-21
2021/05/14 23:09:14;;;;;;;4.68;2.60;;;20.40;53.00;;;;;;20761943;28;20037;-22
2021/05/14 23:19:15;;;;;;;5.63;3.03;;;20.30;52.90;;;;;;20746463;28;20030;-22
2021/05/14 23:29:15;;;;;;;4.85;3.35;;;20.30;52.80;;;;;;20749596;28;20122;-22
2021/05/14 23:39:16;;;;;;;3.95;2.60;;;20.30;52.70;;;;;;20749017;28;20026;-21
2021/05/14 23:49:16;;;;;;;5.03;2.60;;;20.20;52.60;;;;;;20748584;28;20032;-22
2021/05/14 23:59:17;;;;;;;5.38;3.08;;;20.20;52.60;;;;;;20747285;28;20509;-21
